Time;durP1;ratioP1;P1;durP2;ratioP2;P2;SDS_P1;SDS_P2;PMS_P1;PMS_P2;Temp;Humidity;BMP_temperature;BMP_pressure;BME280_temperature;BME280_humidity;BME280_pressure;Samples;Min_cycle;Max_cycle;Signal;HPM_P1;HPM_P2
2022/07/30 00:00:41;;;;;;;11.93;7.68;;;;;;;15.33;nan;101761.63;5033722;28;20172;-61
2022/07/30 00:03:06;;;;;;;8.93;6.18;;;;;;;15.01;nan;101707.13;5033759;28;20033;-61
2022/07/30 00:05:32;;;;;;;7.57;6.78;;;;;;;15.25;nan;101742.50;5033692;28;20067;-62
2022/07/30 00:07:57;;;;;;;13.30;7.75;;;;;;;15.33;nan;101754.53;5033599;28;20494;-62
2022/07/30 00:10:23;;;;;;;11.55;6.90;;;;;;;15.33;nan;101758.97;5032165;28;20034;-60
2022/07/30 00:12:48;;;;;;;10.82;6.35;;;;;;;15.29;nan;101760.03;5033518;28;20084;-62
2022/07/30 00:15:13;;;;;;;10.32;6.45;;;;;;;15.25;nan;101769.88;5032482;28;20051;-63
2022/07/30 00:17:39;;;;;;;8.38;6.40;;;;;;;14.80;nan;101689.38;5032280;28;20389;-61
2022/07/30 00:20:05;;;;;;;12.75;7.30;;;;;;;14.83;nan;101687.47;5033435;28;20483;-61
2022/07/30 00:22:30;;;;;;;10.02;6.57;;;;;;;14.82;nan;101696.34;5032895;28;20056;-61
2022/07/30 00:24:56;;;;;;;9.82;7.13;;;;;;;14.82;nan;101696.34;5032041;28;20044;-62
2022/07/30 00:27:21;;;;;;;7.82;6.38;;;;;;;14.94;nan;101710.94;5033038;28;20041;-61
2022/07/30 00:29:46;;;;;;;6.88;6.05;;;;;;;15.13;nan;101746.47;5033220;28;20041;-62
2022/07/30 00:32:12;;;;;;;10.63;7.55;;;;;;;15.04;nan;101723.81;5033812;28;20083;-60
2022/07/30 00:34:37;;;;;;;11.57;6.05;;;;;;;14.97;nan;101719.63;5031866;28;20045;-61
2022/07/30 00:37:02;;;;;;;10.02;6.47;;;;;;;14.65;nan;101675.75;5033072;28;20044;-61
2022/07/30 00:39:29;;;;;;;12.88;6.90;;;;;;;14.70;nan;101678.25;5031584;28;20033;-60
2022/07/30 00:41:58;;;;;;;7.90;6.63;;;;;;;14.97;nan;101724.94;5033206;28;20065;-60
2022/07/30 00:44:23;;;;;;;8.70;7.25;;;;;;;14.89;nan;101716.41;5033139;28;20067;-61
2022/07/30 00:46:48;;;;;;;10.70;7.10;;;;;;;15.02;nan;101740.69;5032902;28;20065;-60
2022/07/30 00:49:14;;;;;;;8.32;6.80;;;;;;;15.01;nan;101736.28;5031685;28;20037;-61
2022/07/30 00:51:39;;;;;;;9.57;6.47;;;;;;;14.99;nan;101727.53;5032728;28;20041;-61
2022/07/30 00:54:04;;;;;;;13.55;7.13;;;;;;;14.62;nan;101670.56;5048239;28;20037;-60
2022/07/30 00:56:30;;;;;;;8.90;7.00;;;;;;;14.95;nan;101720.59;5031082;28;20525;-60
2022/07/30 00:58:55;;;;;;;12.35;6.35;;;;;;;14.62;nan;101669.72;5032873;28;20041;-60
2022/07/30 01:01:20;;;;;;;9.07;6.63;;;;;;;14.89;nan;101724.34;5032533;28;20037;-61
2022/07/30 01:03:45;;;;;;;10.73;6.93;;;;;;;14.83;nan;101723.69;5032717;28;20124;-61
2022/07/30 01:06:11;;;;;;;12.63;6.43;;;;;;;14.49;nan;101679.88;5032668;28;20030;-61
2022/07/30 01:08:36;;;;;;;7.72;6.50;;;;;;;14.89;nan;101724.34;5047475;28;20535;-61
2022/07/30 01:11:01;;;;;;;13.13;6.35;;;;;;;14.87;nan;101725.34;5032583;28;20042;-61
2022/07/30 01:13:27;;;;;;;8.07;6.10;;;;;;;14.55;nan;101669.06;5032154;28;20084;-61
2022/07/30 01:15:52;;;;;;;8.80;6.45;;;;;;;14.85;nan;101730.72;5032509;28;20042;-61
2022/07/30 01:18:18;;;;;;;8.55;6.45;;;;;;;14.56;nan;101683.19;5031328;28;20150;-62
2022/07/30 01:21:04;;;;;;;8.93;6.20;;;;;;;14.63;nan;101703.22;5030946;28;20034;-61
2022/07/30 01:23:49;;;;;;;11.18;6.35;;;;;;;14.75;nan;101726.63;5030932;28;20033;-60
2022/07/30 01:26:17;;;;;;;10.85;6.53;;;;;;;14.67;nan;101712.81;5032425;28;20066;-60
2022/07/30 01:28:47;;;;;;;7.82;6.50;;;;;;;14.74;nan;101732.84;5031025;28;20037;-61
2022/07/30 01:31:13;;;;;;;9.52;6.35;;;;;;;14.74;nan;101719.59;5031129;28;20033;-61
2022/07/30 01:33:42;;;;;;;8.18;6.55;;;;;;;14.67;nan;101711.94;5030767;28;20087;-61
2022/07/30 01:36:10;;;;;;;10.60;6.13;;;;;;;14.42;nan;101672.16;5031075;28;20144;-60
2022/07/30 01:38:36;;;;;;;10.55;6.13;;;;;;;14.68;nan;101726.91;5032157;28;20060;-61
2022/07/30 01:41:02;;;;;;;10.25;6.93;;;;;;;14.68;nan;101724.28;5030829;28;20037;-59
2022/07/30 01:43:29;;;;;;;11.80;6.70;;;;;;;14.61;nan;101720.97;5030900;28;20033;-60
2022/07/30 01:45:55;;;;;;;9.80;6.50;;;;;;;14.59;nan;101715.69;5032045;28;20073;-60
2022/07/30 01:48:22;;;;;;;8.88;6.15;;;;;;;14.35;nan;101681.25;5030764;28;20065;-61
2022/07/30 01:50:51;;;;;;;9.15;6.57;;;;;;;14.47;nan;101710.84;5030600;28;20374;-60
2022/07/30 01:53:19;;;;;;;12.68;7.75;;;;;;;14.20;nan;101669.38;5030603;28;20041;-60
2022/07/30 01:55:45;;;;;;;8.70;6.78;;;;;;;14.43;nan;101714.53;5030987;28;20029;-63
2022/07/30 01:58:11;;;;;;;11.93;7.10;;;;;;;14.39;nan;101715.53;5032154;28;20033;-61
2022/07/30 02:00:38;;;;;;;8.00;6.90;;;;;;;14.35;nan;101698.03;5031933;28;20436;-60
2022/07/30 02:03:07;;;;;;;7.35;6.50;;;;;;;14.05;nan;101661.97;5030467;28;20159;-63
2022/07/30 02:05:33;;;;;;;11.80;7.97;;;;;;;14.03;nan;101655.84;5031846;28;20041;-60
2022/07/30 02:08:15;;;;;;;9.00;7.25;;;;;;;14.27;nan;101723.00;5031616;28;20033;-61
2022/07/30 02:10:45;;;;;;;10.80;6.63;;;;;;;14.33;nan;101728.13;5035836;28;20116;-60
2022/07/30 02:13:12;;;;;;;9.50;7.25;;;;;;;14.30;nan;101726.41;5035758;28;20026;-60
2022/07/30 02:15:41;;;;;;;9.63;7.18;;;;;;;14.27;nan;101726.53;5034612;28;20033;-60
2022/07/30 02:18:16;;;;;;;9.45;7.63;;;;;;;14.26;nan;101721.28;5035949;28;20053;-59
2022/07/30 02:20:54;;;;;;;9.57;7.53;;;;;;;14.01;nan;101685.00;5034329;28;20104;-60
2022/07/30 02:23:20;;;;;;;10.77;7.13;;;;;;;14.28;nan;101732.66;5034269;28;20037;-60
2022/07/30 02:25:48;;;;;;;10.50;7.90;;;;;;;13.84;nan;101666.19;5035868;28;20037;-61
2022/07/30 02:28:14;;;;;;;9.52;6.85;;;;;;;14.24;nan;101736.34;5034290;28;20052;-62
2022/07/30 02:30:45;;;;;;;8.02;6.60;;;;;;;14.27;nan;101738.91;5034254;28;20041;-61
2022/07/30 02:33:11;;;;;;;10.57;7.07;;;;;;;13.93;nan;101687.06;5034255;28;20108;-61
2022/07/30 02:35:37;;;;;;;8.60;6.97;;;;;;;14.23;nan;101739.91;5034112;28;20033;-61
2022/07/30 02:38:04;;;;;;;9.57;6.85;;;;;;;13.84;nan;101662.66;5033990;28;20079;-61
2022/07/30 02:40:30;;;;;;;9.10;6.43;;;;;;;14.10;nan;101718.25;5033910;28;20033;-60
2022/07/30 02:42:55;;;;;;;7.55;6.82;;;;;;;14.12;nan;101720.88;5034093;28;20021;-61
2022/07/30 02:45:23;;;;;;;8.85;6.50;;;;;;;13.89;nan;101690.69;5034981;28;20393;-60
2022/07/30 02:47:54;;;;;;;15.18;7.18;;;;;;;14.03;nan;101720.25;5035227;28;20033;-60
2022/07/30 02:50:20;;;;;;;7.80;6.43;;;;;;;12.96;nan;101538.53;5033935;28;20384;-60
2022/07/30 02:52:45;;;;;;;8.65;6.70;;;;;;;13.79;nan;101675.19;5033796;28;20400;-60
2022/07/30 02:55:12;;;;;;;8.55;6.40;;;;;;;14.05;nan;101712.25;5035093;28;20042;-60
2022/07/30 02:57:39;;;;;;;6.88;6.28;;;;;;;14.07;nan;101726.28;5033784;28;20029;-60
2022/07/30 03:00:06;;;;;;;8.23;6.20;;;;;;;13.74;nan;101670.06;5035049;28;20365;-60
2022/07/30 03:02:33;;;;;;;7.60;6.80;;;;;;;13.61;nan;101652.81;5034848;28;20080;-60
2022/07/30 03:05:00;;;;;;;8.80;6.80;;;;;;;13.64;nan;101663.31;5034970;28;20124;-59
2022/07/30 03:07:26;;;;;;;12.77;6.95;;;;;;;13.56;nan;101653.88;5033604;28;20168;-61
2022/07/30 03:09:54;;;;;;;8.07;6.70;;;;;;;13.89;nan;101717.16;5034921;28;20120;-60
2022/07/30 03:12:20;;;;;;;8.85;7.35;;;;;;;13.64;nan;101665.97;5033564;28;20039;-60
2022/07/30 03:14:46;;;;;;;8.32;7.15;;;;;;;13.93;nan;101712.66;5033306;28;20025;-61
2022/07/30 03:17:11;;;;;;;12.18;7.13;;;;;;;13.63;nan;101656.28;5033166;28;20395;-61
2022/07/30 03:19:38;;;;;;;10.10;7.38;;;;;;;13.63;nan;101661.56;5015970;28;20038;-60
2022/07/30 03:22:06;;;;;;;11.38;6.82;;;;;;;13.84;nan;101702.34;5033072;28;20092;-60
2022/07/30 03:24:32;;;;;;;11.27;7.38;;;;;;;13.64;nan;101668.59;5033427;28;20134;-60
2022/07/30 03:26:59;;;;;;;10.43;7.35;;;;;;;13.85;nan;101707.63;5033144;28;20083;-61
2022/07/30 03:29:26;;;;;;;8.60;6.85;;;;;;;13.58;nan;101671.44;5033278;28;20468;-60
2022/07/30 03:31:52;;;;;;;12.95;7.70;;;;;;;13.89;nan;101740.16;5033220;28;20044;-61
2022/07/30 03:34:18;;;;;;;11.40;7.50;;;;;;;13.73;nan;101717.72;5034325;28;20025;-61
2022/07/30 03:36:43;;;;;;;9.60;8.13;;;;;;;13.47;nan;101663.84;5032911;28;20026;-60
2022/07/30 03:39:09;;;;;;;10.95;8.05;;;;;;;13.78;nan;101721.94;5033017;28;20091;-60
2022/07/30 03:41:35;;;;;;;8.52;7.70;;;;;;;13.50;nan;101678.75;5033041;28;20034;-63
2022/07/30 03:44:01;;;;;;;14.30;8.48;;;;;;;13.80;nan;101729.84;5033075;28;20075;-60
2022/07/30 03:46:27;;;;;;;9.93;8.40;;;;;;;13.84;nan;101739.41;5033970;28;20056;-61
2022/07/30 03:48:53;;;;;;;12.77;8.30;;;;;;;13.61;nan;101696.94;5032765;28;20108;-60
2022/07/30 03:51:18;;;;;;;11.48;8.40;;;;;;;13.59;nan;101712.88;5033906;28;20029;-62
2022/07/30 03:53:44;;;;;;;11.82;8.35;;;;;;;13.73;nan;101738.88;5032842;28;20072;-61
2022/07/30 03:56:10;;;;;;;11.63;9.23;;;;;;;13.75;nan;101731.75;5032852;28;20119;-60
2022/07/30 03:58:37;;;;;;;9.73;8.38;;;;;;;13.80;nan;101740.44;5032694;28;20431;-59
2022/07/30 04:01:02;;;;;;;14.80;9.18;;;;;;;13.50;nan;101686.69;5032469;28;20075;-60
2022/07/30 04:03:29;;;;;;;10.45;8.02;;;;;;;13.73;nan;101734.47;5032573;28;20069;-61
2022/07/30 04:05:55;;;;;;;14.10;7.97;;;;;;;13.76;nan;101742.31;5033555;28;20045;-61
2022/07/30 04:08:20;;;;;;;12.15;8.80;;;;;;;13.75;nan;101732.63;5033741;28;20079;-61
2022/07/30 04:10:47;;;;;;;13.60;9.00;;;;;;;13.01;nan;101618.56;5033397;28;20488;-60
2022/07/30 04:13:12;;;;;;;13.30;8.27;;;;;;;13.80;nan;101740.44;5033377;28;20500;-60
2022/07/30 04:15:48;;;;;;;13.65;7.75;;;;;;;13.60;nan;101706.63;5033353;28;20030;-59
2022/07/30 04:18:14;;;;;;;10.00;7.45;;;;;;;13.89;nan;101763.97;5032167;28;20033;-60
2022/07/30 04:20:42;;;;;;;9.85;7.18;;;;;;;13.70;nan;101720.44;5032280;28;20060;-60
2022/07/30 04:23:08;;;;;;;10.85;7.35;;;;;;;13.90;nan;101750.66;5033458;28;20104;-59
2022/07/30 04:25:34;;;;;;;7.78;6.97;;;;;;;13.92;nan;101751.47;5033242;28;20040;-61
2022/07/30 04:27:59;;;;;;;9.85;6.85;;;;;;;13.65;nan;101704.75;5031799;28;20045;-59
2022/07/30 04:30:26;;;;;;;14.10;6.70;;;;;;;13.99;nan;101758.31;5031892;28;20040;-60
2022/07/30 04:32:51;;;;;;;9.85;6.55;;;;;;;13.98;nan;101750.44;5032049;28;20108;-62
2022/07/30 04:35:26;;;;;;;10.02;6.70;;;;;;;13.95;nan;101750.53;5032111;28;20065;-60
2022/07/30 04:37:51;;;;;;;6.60;5.88;;;;;;;13.89;nan;101733.03;5032971;28;20029;-59
2022/07/30 04:40:16;;;;;;;8.18;6.00;;;;;;;14.06;nan;101756.34;5033104;28;20106;-60
2022/07/30 04:42:41;;;;;;;6.38;5.70;;;;;;;14.09;nan;101762.41;5033041;28;21126;-60
2022/07/30 04:45:07;;;;;;;8.85;6.25;;;;;;;14.16;nan;101760.41;5032934;28;20113;-59
2022/07/30 04:47:32;;;;;;;8.60;6.18;;;;;;;14.21;nan;101755.00;5032834;28;20098;-60
2022/07/30 04:49:58;;;;;;;7.60;5.72;;;;;;;14.24;nan;101760.19;5032991;28;20041;-62
2022/07/30 04:52:24;;;;;;;10.32;6.00;;;;;;;14.24;nan;101749.59;5031776;28;20068;-61
2022/07/30 04:54:55;;;;;;;8.70;5.65;;;;;;;13.95;nan;101701.09;5031676;28;20038;-62
2022/07/30 04:57:22;;;;;;;9.63;6.82;;;;;;;14.24;nan;101741.66;5031411;28;20515;-60
2022/07/30 04:59:47;;;;;;;7.70;6.20;;;;;;;14.36;nan;101750.06;5032453;28;20064;-60
2022/07/30 05:02:14;;;;;;;7.25;5.50;;;;;;;14.12;nan;101702.34;5032462;28;20120;-61
2022/07/30 05:04:40;;;;;;;8.70;6.15;;;;;;;14.15;nan;101710.19;5032586;28;20033;-60
2022/07/30 05:07:06;;;;;;;8.55;5.93;;;;;;;14.42;nan;101749.00;5031392;28;20037;-61
2022/07/30 05:09:32;;;;;;;10.02;6.05;;;;;;;14.21;nan;101709.97;5032500;28;20037;-61
2022/07/30 05:11:58;;;;;;;9.38;5.75;;;;;;;14.48;nan;101747.00;5031300;28;20372;-60
2022/07/30 05:14:24;;;;;;;6.80;5.47;;;;;;;14.59;nan;101762.56;5030974;28;20472;-60
2022/07/30 05:16:50;;;;;;;8.95;6.40;;;;;;;14.37;nan;101719.16;5032204;28;20469;-61
2022/07/30 05:19:17;;;;;;;7.97;5.72;;;;;;;14.70;nan;101770.13;5032573;28;20025;-60
2022/07/30 05:21:43;;;;;;;7.53;5.40;;;;;;;14.74;nan;101769.09;5031083;28;20528;-60
2022/07/30 05:24:08;;;;;;;8.27;5.45;;;;;;;14.78;nan;101771.59;5032380;28;20125;-60
2022/07/30 05:26:33;;;;;;;7.97;5.55;;;;;;;14.51;nan;101722.19;5032192;28;20040;-60
2022/07/30 05:28:59;;;;;;;5.15;4.57;;;;;;;14.89;nan;101795.94;5030929;28;20084;-62
2022/07/30 05:31:25;;;;;;;8.23;5.32;;;;;;;14.88;nan;101769.50;5030676;28;20392;-61
2022/07/30 05:33:50;;;;;;;7.30;4.90;;;;;;;14.83;nan;101744.91;5032337;28;20033;-59
2022/07/30 05:36:16;;;;;;;4.68;4.15;;;;;;;15.19;nan;101791.31;5032149;28;20053;-60
2022/07/30 05:38:41;;;;;;;5.55;4.28;;;;;;;15.02;nan;101743.34;5032124;28;20034;-62
2022/07/30 05:41:06;;;;;;;5.20;3.55;;;;;;;15.13;nan;101746.47;5032211;28;20243;-60
2022/07/30 05:43:32;;;;;;;5.85;3.72;;;;;;;15.48;nan;101795.59;5031625;28;20492;-62
2022/07/30 05:45:57;;;;;;;7.35;3.72;;;;;;;15.38;nan;101768.50;5031003;28;20040;-61
2022/07/30 05:48:22;;;;;;;8.15;3.80;;;;;;;15.63;nan;101793.22;5030977;28;20044;-59
2022/07/30 05:50:48;;;;;;;5.85;3.47;;;;;;;15.26;nan;101712.41;5031980;28;20075;-61
2022/07/30 05:53:13;;;;;;;5.60;3.13;;;;;;;15.83;nan;101807.50;5047112;28;20060;-61
2022/07/30 05:55:38;;;;;;;3.92;2.92;;;;;;;15.92;nan;101804.50;5030853;28;20037;-62
2022/07/30 05:58:04;;;;;;;5.13;2.60;;;;;;;16.05;nan;101808.41;5031994;28;20038;-61
2022/07/30 06:00:29;;;;;;;7.63;3.05;;;;;;;16.11;nan;101811.66;5031827;28;20077;-61
2022/07/30 06:02:54;;;;;;;4.97;3.08;;;;;;;16.22;nan;101813.91;5031672;28;20030;-62
2022/07/30 06:05:20;;;;;;;5.30;2.65;;;;;;;16.26;nan;101796.91;5030887;28;20042;-60
2022/07/30 06:07:46;;;;;;;5.75;3.13;;;;;;;16.36;nan;101800.06;5031947;28;20069;-62
2022/07/30 06:10:11;;;;;;;6.18;2.50;;;;;;;16.33;nan;101780.66;5031754;28;20502;-59
2022/07/30 06:12:36;;;;;;;4.55;2.63;;;;;;;16.64;nan;101808.63;5031885;28;20036;-60
2022/07/30 06:15:02;;;;;;;2.63;2.35;;;;;;;16.27;nan;101735.75;5031754;28;20076;-62
2022/07/30 06:17:28;;;;;;;3.63;2.33;;;;;;;16.58;nan;101769.91;5032057;28;20473;-61
2022/07/30 06:19:53;;;;;;;6.10;3.45;;;;;;;16.85;nan;101808.59;5031859;28;20068;-59
2022/07/30 06:22:19;;;;;;;4.22;2.65;;;;;;;17.00;nan;101820.38;5031891;28;20045;-62
2022/07/30 06:24:44;;;;;;;3.20;2.22;;;;;;;17.09;nan;101821.78;5031949;28;20041;-63
2022/07/30 06:27:09;;;;;;;5.60;2.17;;;;;;;16.93;nan;101778.16;5030389;28;20428;-60
2022/07/30 06:29:35;;;;;;;5.40;2.28;;;;;;;17.21;nan;101811.47;5031512;28;20469;-61
2022/07/30 06:32:00;;;;;;;4.38;1.77;;;;;;;17.40;nan;101822.13;5031908;28;20034;-61
2022/07/30 06:34:26;;;;;;;4.72;1.50;;;;;;;17.24;nan;101781.19;5030967;28;20048;-61
2022/07/30 06:36:51;;;;;;;3.35;1.30;;;;;;;17.29;nan;101790.69;5031664;28;20044;-62
2022/07/30 06:39:16;;;;;;;1.88;1.27;;;;;;;17.33;nan;101786.97;5030501;28;20045;-61
2022/07/30 06:41:42;;;;;;;8.63;1.67;;;;;;;17.74;nan;101840.16;5030348;28;20338;-61
2022/07/30 06:44:07;;;;;;;4.63;2.00;;;;;;;17.63;nan;101795.34;5031519;28;20067;-60
2022/07/30 06:46:32;;;;;;;3.40;1.60;;;;;;;17.93;nan;101835.66;5031808;28;20396;-62
2022/07/30 06:48:58;;;;;;;3.47;1.83;;;;;;;18.00;nan;101855.78;5031603;28;20072;-59
2022/07/30 06:51:23;;;;;;;4.03;1.33;;;;;;;18.04;nan;101837.84;5046977;28;20040;-60
2022/07/30 06:53:49;;;;;;;2.40;1.23;;;;;;;17.84;nan;101798.81;5030221;28;20041;-60
2022/07/30 06:56:14;;;;;;;6.85;1.95;;;;;;;18.15;nan;101848.84;5034065;28;20103;-63
2022/07/30 06:58:39;;;;;;;3.63;1.63;;;;;;;18.23;nan;101830.69;5034850;28;20469;-62
2022/07/30 07:01:05;;;;;;;5.65;1.27;;;;;;;18.33;nan;101846.16;5034022;28;20076;-61
2022/07/30 07:03:30;;;;;;;1.73;1.45;;;;;;;18.47;nan;101830.38;5035211;28;20117;-63
2022/07/30 07:05:56;;;;;;;2.58;1.42;;;;;;;18.58;nan;101821.00;5035329;28;20074;-61
2022/07/30 07:08:22;;;;;;;3.03;1.60;;;;;;;18.89;nan;101853.16;5034885;28;20040;-62
2022/07/30 07:10:47;;;;;;;2.10;1.10;;;;;;;18.85;nan;101819.59;5033442;28;20046;-61
2022/07/30 07:13:13;;;;;;;1.45;1.25;;;;;;;18.28;nan;101738.91;5033342;28;20057;-63
2022/07/30 07:15:38;;;;;;;2.38;1.38;;;;;;;19.00;nan;101830.34;5034805;28;20033;-60
2022/07/30 07:18:05;;;;;;;5.10;1.52;;;;;;;18.90;nan;101810.41;5033620;28;20110;-61
2022/07/30 07:20:31;;;;;;;7.00;1.45;;;;;;;19.17;nan;101853.50;5034798;28;20037;-61
2022/07/30 07:22:56;;;;;;;5.88;1.73;;;;;;;19.35;nan;101862.34;5034475;28;20386;-61
2022/07/30 07:25:22;;;;;;;3.42;1.30;;;;;;;19.42;nan;101863.78;5034741;28;20068;-61
2022/07/30 07:27:48;;;;;;;3.13;1.30;;;;;;;19.15;nan;101819.81;5033987;28;20535;-63
2022/07/30 07:30:13;;;;;;;3.35;1.27;;;;;;;19.53;nan;101874.75;5034381;28;20037;-61
2022/07/30 07:32:38;;;;;;;4.43;1.58;;;;;;;19.30;nan;101813.66;5034731;28;20041;-62
2022/07/30 07:35:05;;;;;;;1.30;1.00;;;;;;;19.88;nan;101887.06;5034442;28;20033;-62
2022/07/30 07:37:30;;;;;;;2.28;1.40;;;;;;;19.44;nan;101739.06;5034265;28;20051;-63
2022/07/30 07:39:56;;;;;;;2.22;1.20;;;;;;;20.54;nan;101885.16;5034260;28;20463;-61
2022/07/30 07:42:21;;;;;;;3.65;1.40;;;;;;;20.86;nan;101882.41;5033980;28;20541;-61
2022/07/30 07:44:46;;;;;;;3.20;1.20;;;;;;;21.26;nan;101887.16;5033935;28;20037;-63
2022/07/30 07:47:11;;;;;;;3.15;1.30;;;;;;;21.24;nan;101883.72;5034258;28;20035;-61
2022/07/30 07:49:37;;;;;;;1.88;1.02;;;;;;;21.51;nan;101903.44;5033802;28;20041;-60
2022/07/30 07:52:02;;;;;;;0.98;0.90;;;;;;;21.78;nan;101900.88;5034006;28;20076;-61
2022/07/30 07:54:28;;;;;;;3.00;1.35;;;;;;;22.05;nan;101852.75;5033969;28;20036;-61
2022/07/30 07:56:56;;;;;;;2.30;1.20;;;;;;;22.35;nan;101901.75;5032414;28;20439;-61
2022/07/30 07:59:22;;;;;;;2.10;1.00;;;;;;;23.04;nan;101912.34;5033701;28;20064;-61
2022/07/30 08:01:47;;;;;;;2.00;0.82;;;;;;;23.60;nan;101921.94;5033858;28;20148;-61
2022/07/30 08:04:13;;;;;;;1.70;1.13;;;;;;;23.67;nan;101920.50;5033880;28;20129;-62
2022/07/30 08:06:38;;;;;;;3.72;2.28;;;;;;;24.02;nan;101875.00;5048807;28;20041;-61
2022/07/30 08:09:03;;;;;;;2.83;1.13;;;;;;;24.47;nan;101921.94;5032421;28;20037;-61
2022/07/30 08:11:29;;;;;;;1.98;1.35;;;;;;;24.47;nan;101924.63;5033606;28;20057;-63
2022/07/30 08:13:54;;;;;;;1.58;0.70;;;;;;;24.15;nan;101885.75;5033356;28;20124;-63
2022/07/30 08:16:19;;;;;;;3.58;0.95;;;;;;;24.69;nan;101923.91;5032415;28;20045;-61
2022/07/30 08:18:45;;;;;;;2.28;0.80;;;;;;;24.78;nan;101921.38;5048753;28;20065;-64
2022/07/30 08:21:10;;;;;;;4.07;0.90;;;;;;;24.87;nan;101922.59;5033517;28;20034;-62
2022/07/30 08:23:36;;;;;;;2.58;0.90;;;;;;;24.94;nan;101918.44;5033264;28;20142;-60
2022/07/30 08:26:01;;;;;;;3.17;1.23;;;;;;;24.92;nan;101855.75;5033279;28;20037;-61
2022/07/30 08:28:26;;;;;;;2.28;1.40;;;;;;;25.32;nan;101915.50;5033154;28;20061;-62
2022/07/30 08:30:52;;;;;;;3.28;1.33;;;;;;;24.73;nan;101877.78;5033301;28;20137;-61
2022/07/30 08:33:17;;;;;;;2.95;1.17;;;;;;;24.59;nan;101872.59;5033193;28;20476;-61
2022/07/30 08:35:43;;;;;;;2.83;1.17;;;;;;;25.22;nan;101872.22;5031781;28;20029;-61
2022/07/30 08:38:08;;;;;;;2.45;1.25;;;;;;;25.91;nan;101935.13;5032884;28;20041;-62
2022/07/30 08:40:34;;;;;;;1.80;0.90;;;;;;;26.51;nan;101929.34;5031640;28;20041;-61
2022/07/30 08:43:04;;;;;;;3.45;0.85;;;;;;;26.48;nan;101905.28;5031653;28;20041;-63
2022/07/30 08:45:30;;;;;;;1.13;0.80;;;;;;;26.71;nan;101913.22;5031870;28;20033;-64
2022/07/30 08:47:56;;;;;;;0.90;0.75;;;;;;;26.75;nan;101908.41;5048107;28;20473;-62
2022/07/30 08:50:22;;;;;;;1.58;1.08;;;;;;;26.45;nan;101963.09;5031605;28;20472;-62
2022/07/30 08:52:48;;;;;;;2.45;1.20;;;;;;;26.45;nan;101951.44;5032896;28;20125;-61
2022/07/30 08:55:14;;;;;;;1.17;0.75;;;;;;;26.46;nan;101907.28;5031532;28;20124;-62
2022/07/30 08:57:40;;;;;;;4.30;1.27;;;;;;;26.52;nan;101958.06;5032890;28;20040;-64
2022/07/30 09:00:07;;;;;;;3.22;1.13;;;;;;;26.62;nan;101962.59;5032868;28;20041;-61
2022/07/30 09:02:33;;;;;;;2.63;1.23;;;;;;;26.36;nan;101914.44;5031546;28;20061;-61
2022/07/30 09:04:58;;;;;;;2.90;1.00;;;;;;;26.61;nan;101951.91;5032574;28;20084;-62
2022/07/30 09:07:23;;;;;;;3.90;1.17;;;;;;;26.85;nan;101959.88;5032668;28;20527;-62
2022/07/30 09:09:49;;;;;;;1.10;0.77;;;;;;;26.90;nan;101944.13;5032232;28;20048;-61
2022/07/30 09:12:33;;;;;;;2.63;1.15;;;;;;;27.03;nan;101952.94;5032444;28;20497;-60
2022/07/30 09:15:08;;;;;;;2.33;0.85;;;;;;;26.90;nan;101927.91;5031236;28;20037;-64
2022/07/30 09:17:56;;;;;;;3.65;1.13;;;;;;;27.26;nan;101965.38;5031753;28;20040;-61
2022/07/30 09:20:29;;;;;;;2.08;0.90;;;;;;;26.79;nan;101910.75;5031999;28;20029;-64
2022/07/30 09:22:59;;;;;;;3.40;1.08;;;;;;;26.82;nan;101964.53;5030967;28;20040;-61
2022/07/30 09:25:35;;;;;;;2.42;1.00;;;;;;;27.17;nan;101912.09;5031049;28;20021;-63
2022/07/30 09:28:01;;;;;;;1.48;0.90;;;;;;;27.49;nan;101947.22;5032111;28;20049;-61
2022/07/30 09:30:34;;;;;;;2.28;0.95;;;;;;;27.13;nan;101922.28;5032209;28;20045;-62
2022/07/30 09:32:59;;;;;;;2.83;1.02;;;;;;;27.68;nan;101953.59;5030711;28;20380;-65
2022/07/30 09:35:24;;;;;;;3.45;0.90;;;;;;;27.98;nan;101950.06;5032047;28;20382;-63
2022/07/30 09:37:59;;;;;;;1.23;0.90;;;;;;;27.70;nan;101956.19;5032031;28;20469;-61
2022/07/30 09:40:25;;;;;;;4.97;1.40;;;;;;;27.42;nan;101908.16;5032076;28;20087;-62
2022/07/30 09:43:09;;;;;;;1.98;0.85;;;;;;;27.78;nan;101956.38;5031970;28;20046;-64
2022/07/30 09:45:35;;;;;;;4.07;1.25;;;;;;;27.48;nan;101915.75;5030753;28;20431;-61
2022/07/30 09:48:01;;;;;;;3.83;1.60;;;;;;;27.25;nan;101902.34;5032129;28;20064;-63
2022/07/30 09:50:27;;;;;;;2.72;1.27;;;;;;;27.78;nan;101954.53;5031999;28;20029;-64
2022/07/30 09:52:53;;;;;;;1.88;1.10;;;;;;;27.97;nan;101950.19;5031761;28;20087;-60
2022/07/30 09:55:33;;;;;;;1.98;0.88;;;;;;;28.33;nan;101938.84;5030770;28;20068;-60
2022/07/30 09:58:00;;;;;;;1.08;0.75;;;;;;;28.58;nan;101888.69;5030692;28;20480;-65
2022/07/30 10:00:27;;;;;;;1.48;0.73;;;;;;;29.17;nan;101892.19;5030919;28;20065;-62
2022/07/30 10:02:53;;;;;;;2.03;1.13;;;;;;;29.51;nan;101925.97;5031955;28;20505;-63
2022/07/30 10:05:19;;;;;;;2.80;1.00;;;;;;;29.90;nan;101915.03;5032003;28;20035;-64
2022/07/30 10:07:59;;;;;;;1.70;0.88;;;;;;;30.26;nan;101938.63;5031770;28;20112;-62
2022/07/30 10:10:26;;;;;;;3.10;1.30;;;;;;;30.28;nan;101936.59;5030410;28;20105;-62
2022/07/30 10:13:00;;;;;;;1.20;1.08;;;;;;;29.93;nan;101950.91;5031909;28;20038;-61
2022/07/30 10:15:31;;;;;;;1.70;1.20;;;;;;;29.63;nan;101931.25;5030412;28;20030;-62
2022/07/30 10:17:57;;;;;;;3.45;1.38;;;;;;;29.26;nan;101904.91;5030583;28;20376;-62
2022/07/30 10:20:23;;;;;;;2.85;1.00;;;;;;;29.45;nan;101953.69;5031850;28;20415;-62
2022/07/30 10:22:48;;;;;;;2.65;1.60;;;;;;;29.06;nan;101918.59;5030626;28;20033;-61
2022/07/30 10:25:17;;;;;;;2.10;1.25;;;;;;;29.45;nan;101955.56;5030822;28;20494;-61
2022/07/30 10:27:43;;;;;;;2.42;1.02;;;;;;;29.12;nan;101934.28;5031719;28;20061;-62
2022/07/30 10:30:09;;;;;;;1.75;0.98;;;;;;;29.02;nan;101948.69;5033102;28;20042;-62
2022/07/30 10:32:36;;;;;;;2.22;1.35;;;;;;;28.41;nan;101949.81;5035337;28;20484;-63
2022/07/30 10:35:02;;;;;;;2.65;1.42;;;;;;;28.40;nan;101962.50;5035458;28;20029;-63
2022/07/30 10:37:30;;;;;;;3.75;1.15;;;;;;;28.13;nan;101910.84;5035352;28;20383;-65
2022/07/30 10:40:01;;;;;;;2.75;1.27;;;;;;;27.94;nan;101906.16;5034327;28;20029;-64
2022/07/30 10:42:41;;;;;;;3.78;1.25;;;;;;;28.04;nan;101946.84;5034113;28;20124;-66
2022/07/30 10:45:23;;;;;;;1.77;1.10;;;;;;;27.93;nan;101909.84;5033978;28;20036;-62
2022/07/30 10:47:50;;;;;;;3.28;1.02;;;;;;;28.18;nan;101949.19;5035024;28;20029;-63
2022/07/30 10:50:21;;;;;;;3.20;1.05;;;;;;;28.06;nan;101896.13;5033766;28;20060;-63
2022/07/30 10:52:50;;;;;;;2.70;1.25;;;;;;;27.87;nan;101948.28;5035035;28;20037;-63
2022/07/30 10:55:22;;;;;;;2.72;1.30;;;;;;;27.18;nan;101889.47;5035120;28;20037;-65
2022/07/30 10:57:56;;;;;;;2.58;1.40;;;;;;;27.23;nan;101941.31;5034781;28;20076;-62
2022/07/30 11:00:21;;;;;;;2.92;1.10;;;;;;;27.01;nan;101928.72;5034681;28;20584;-60
2022/07/30 11:03:16;;;;;;;1.88;1.20;;;;;;;26.96;nan;101930.97;5035087;28;20128;-63
2022/07/30 11:05:43;;;;;;;6.63;1.65;;;;;;;26.32;nan;101904.84;5034614;28;20021;-64
2022/07/30 11:08:28;;;;;;;3.15;1.20;;;;;;;25.90;nan;101883.00;5033326;28;20116;-65
2022/07/30 11:10:54;;;;;;;3.13;0.98;;;;;;;25.93;nan;101935.84;5034532;28;20029;-61
2022/07/30 11:13:51;;;;;;;1.95;1.00;;;;;;;25.84;nan;101939.28;5016891;28;20045;-63
2022/07/30 11:16:19;;;;;;;2.05;1.00;;;;;;;25.57;nan;101927.00;5034748;28;20026;-62
2022/07/30 11:19:07;;;;;;;1.65;0.95;;;;;;;25.48;nan;101934.97;5033360;28;20037;-63
2022/07/30 11:21:34;;;;;;;2.55;1.35;;;;;;;25.49;nan;101924.03;5049986;28;20087;-62
2022/07/30 11:24:00;;;;;;;2.70;1.40;;;;;;;24.82;nan;101892.41;5033134;28;20548;-64
2022/07/30 11:26:37;;;;;;;3.05;1.10;;;;;;;24.62;nan;101937.84;5034521;28;20364;-62
2022/07/30 11:29:03;;;;;;;3.97;1.27;;;;;;;24.45;nan;101897.84;5034064;28;20051;-62
2022/07/30 11:31:30;;;;;;;2.40;0.80;;;;;;;25.03;nan;101940.16;5032944;28;20116;-65
2022/07/30 11:34:31;;;;;;;4.13;1.00;;;;;;;24.81;nan;101933.81;5034513;28;20092;-63
2022/07/30 11:37:06;;;;;;;3.50;1.30;;;;;;;24.86;nan;101942.41;4956965;28;20045;-63
2022/07/30 11:39:56;;;;;;;5.60;1.40;;;;;;;25.05;nan;101927.41;5025207;28;20042;-62